createdAt,value
2022-09-14T00:01:46.678Z,4.00
2022-09-14T00:04:19.388Z,5.00
2022-09-14T00:06:48.296Z,7.00
2022-09-14T00:09:23.821Z,6.00
2022-09-14T00:11:53.717Z,6.00
2022-09-14T00:14:22.049Z,5.00
2022-09-14T00:16:51.094Z,6.00
2022-09-14T00:19:27.181Z,6.00
2022-09-14T00:21:59.734Z,6.00
2022-09-14T00:24:31.158Z,5.50
2022-09-14T00:27:05.533Z,5.86
2022-09-14T00:29:36.971Z,5.86
2022-09-14T00:32:06.627Z,6.00
2022-09-14T00:34:35.007Z,5.00
2022-09-14T00:37:02.757Z,6.00
2022-09-14T00:39:32.216Z,5.20
2022-09-14T00:42:01.789Z,6.00
2022-09-14T00:44:29.329Z,6.00
2022-09-14T00:47:01.878Z,6.00
2022-09-14T00:49:40.879Z,5.00
2022-09-14T00:52:28.922Z,6.00
2022-09-14T00:55:03.458Z,4.00
2022-09-14T00:57:45.468Z,7.00
2022-09-14T01:00:21.961Z,6.40
2022-09-14T01:02:52.091Z,6.00
2022-09-14T01:05:28.823Z,7.00
2022-09-14T01:08:58.886Z,6.20
2022-09-14T01:12:23.850Z,6.00
2022-09-14T01:15:25.323Z,6.40
2022-09-14T01:18:08.490Z,7.00
2022-09-14T01:20:55.455Z,6.00
2022-09-14T01:23:41.534Z,6.00
2022-09-14T01:27:07.440Z,6.00
2022-09-14T01:30:10.180Z,12.00
2022-09-14T01:33:11.223Z,8.00
2022-09-14T01:36:08.658Z,7.00
2022-09-14T01:38:54.264Z,5.20
2022-09-14T01:41:31.442Z,7.00
2022-09-14T01:44:32.538Z,6.40
2022-09-14T01:47:26.630Z,7.00
2022-09-14T01:50:37.242Z,7.80
2022-09-14T01:53:28.226Z,6.80
2022-09-14T01:56:24.702Z,6.80
2022-09-14T01:59:15.150Z,6.00
2022-09-14T02:01:55.373Z,7.00
2022-09-14T02:05:15.532Z,7.00
2022-09-14T02:07:43.247Z,6.00
2022-09-14T02:10:17.512Z,7.14
2022-09-14T02:12:47.167Z,7.00
2022-09-14T02:15:16.823Z,6.25
2022-09-14T02:17:44.774Z,6.00
2022-09-14T02:20:39.911Z,8.00
2022-09-14T02:23:09.831Z,8.20
2022-09-14T02:25:41.184Z,7.33
2022-09-14T02:28:09.166Z,7.00
2022-09-14T02:31:09.984Z,6.00
2022-09-14T02:34:09.287Z,7.00
2022-09-14T02:37:20.459Z,8.00
2022-09-14T02:40:54.023Z,7.00
2022-09-14T02:44:13.630Z,7.00
2022-09-14T02:47:21.726Z,7.00
2022-09-14T02:50:36.236Z,7.67
2022-09-14T02:53:19.983Z,6.00
2022-09-14T02:56:00.925Z,7.00
2022-09-14T02:58:40.710Z,5.00
2022-09-14T03:01:17.047Z,7.00
2022-09-14T03:03:44.886Z,8.50
2022-09-14T03:06:13.796Z,7.33
2022-09-14T03:08:44.226Z,6.80
2022-09-14T03:11:12.483Z,8.00
2022-09-14T03:13:40.741Z,8.00
2022-09-14T03:16:15.210Z,8.67
2022-09-14T03:18:43.094Z,7.00
2022-09-14T03:21:17.641Z,9.00
2022-09-14T03:23:51.565Z,7.33
2022-09-14T03:26:23.224Z,8.00
2022-09-14T03:28:59.341Z,9.00
2022-09-14T03:31:28.528Z,8.00
2022-09-14T03:34:00.642Z,9.00
2022-09-14T03:36:31.715Z,7.00
2022-09-14T03:39:02.034Z,8.50
2022-09-14T03:41:30.070Z,9.00
2022-09-14T03:43:57.754Z,8.50
2022-09-14T03:46:27.084Z,9.00
2022-09-14T03:48:56.445Z,8.00
2022-09-14T03:51:24.846Z,9.00
2022-09-14T03:53:52.653Z,8.00
2022-09-14T03:56:24.039Z,8.67
2022-09-14T03:58:52.582Z,8.67
2022-09-14T04:01:23.703Z,9.00
2022-09-14T04:03:52.186Z,8.00
2022-09-14T04:06:20.857Z,9.67
2022-09-14T04:08:48.787Z,8.00
2022-09-14T04:11:23.301Z,9.00
2022-09-14T04:13:52.833Z,7.00
2022-09-14T04:16:22.354Z,8.50
2022-09-14T04:18:50.923Z,8.00
2022-09-14T04:21:24.081Z,6.00
2022-09-14T04:24:14.088Z,8.00
2022-09-14T04:26:45.685Z,8.00
2022-09-14T04:29:14.815Z,9.00
2022-09-14T04:31:42.815Z,7.50
2022-09-14T04:34:14.127Z,8.00
2022-09-14T04:36:43.669Z,8.00
2022-09-14T04:39:14.119Z,8.00
2022-09-14T04:41:44.200Z,8.40
2022-09-14T04:44:12.956Z,8.00
2022-09-14T04:46:46.596Z,9.00
2022-09-14T04:49:18.974Z,10.00
2022-09-14T04:51:48.868Z,9.00
2022-09-14T04:54:19.342Z,10.67
2022-09-14T04:56:48.833Z,12.67
2022-09-14T04:59:16.778Z,10.00
2022-09-14T05:01:49.266Z,7.00
2022-09-14T05:04:18.129Z,8.00
2022-09-14T05:06:46.415Z,8.00
2022-09-14T05:09:18.621Z,7.80
2022-09-14T05:11:47.075Z,7.00
2022-09-14T05:14:15.823Z,9.00
2022-09-14T05:16:45.193Z,8.00
2022-09-14T05:19:18.379Z,12.00
2022-09-14T05:21:47.823Z,11.00
2022-09-14T05:24:19.090Z,9.00
2022-09-14T05:26:47.695Z,8.00
2022-09-14T05:29:18.985Z,10.00
2022-09-14T05:31:48.294Z,7.33
2022-09-14T05:34:17.084Z,9.00
2022-09-14T05:36:44.900Z,11.00
2022-09-14T05:39:12.947Z,9.00
2022-09-14T05:41:41.570Z,9.33
2022-09-14T05:44:11.099Z,9.20
2022-09-14T05:46:39.749Z,10.00
2022-09-14T05:49:08.326Z,9.00
2022-09-14T05:51:36.725Z,8.67
2022-09-14T05:54:10.269Z,10.00
2022-09-14T05:56:39.107Z,8.67
2022-09-14T05:59:06.869Z,9.00
2022-09-14T06:01:35.366Z,8.00
2022-09-14T06:04:04.966Z,8.40
2022-09-14T06:06:34.087Z,9.50
2022-09-14T06:09:01.889Z,9.00
2022-09-14T06:11:36.366Z,9.33
2022-09-14T06:14:06.182Z,10.00
2022-09-14T06:16:34.951Z,9.50
2022-09-14T06:19:02.904Z,8.00
2022-09-14T06:21:35.539Z,9.00
2022-09-14T06:24:04.447Z,10.00
2022-09-14T06:26:32.422Z,9.00
2022-09-14T06:29:00.990Z,10.00
2022-09-14T06:31:29.460Z,9.67
2022-09-14T06:33:59.019Z,9.00
2022-09-14T06:36:28.966Z,8.33
2022-09-14T06:38:59.432Z,9.00
2022-09-14T06:41:30.699Z,7.67
2022-09-14T06:44:01.910Z,8.50
2022-09-14T06:46:34.011Z,8.00
2022-09-14T06:49:07.791Z,8.00
2022-09-14T06:51:42.627Z,6.20
2022-09-14T06:54:15.588Z,9.00
2022-09-14T06:56:46.455Z,8.00
2022-09-14T06:59:18.929Z,8.20
2022-09-14T07:01:46.755Z,8.00
2022-09-14T07:04:15.352Z,8.00
2022-09-14T07:06:48.433Z,9.00
2022-09-14T07:09:19.765Z,7.33
2022-09-14T07:11:47.847Z,8.00
2022-09-14T07:14:16.763Z,7.50
2022-09-14T07:16:45.189Z,7.33
2022-09-14T07:19:15.257Z,8.00
2022-09-14T07:21:43.641Z,9.00
2022-09-14T07:24:15.117Z,8.33
2022-09-14T07:26:44.278Z,8.67
2022-09-14T07:29:19.990Z,8.00
2022-09-14T07:31:52.913Z,8.00
2022-09-14T07:34:21.907Z,8.00
2022-09-14T07:36:50.320Z,8.00
2022-09-14T07:39:19.061Z,9.33
2022-09-14T07:41:47.563Z,10.00
2022-09-14T07:44:17.806Z,9.00
2022-09-14T07:46:48.822Z,8.00
2022-09-14T07:49:17.801Z,10.00
2022-09-14T07:51:46.784Z,7.67
2022-09-14T07:54:16.938Z,10.00
2022-09-14T07:56:49.459Z,10.67
2022-09-14T07:59:35.218Z,9.67
2022-09-14T08:02:07.761Z,9.00
2022-09-14T08:04:37.889Z,8.00
2022-09-14T08:07:06.491Z,7.00
2022-09-14T08:09:35.000Z,10.33
2022-09-14T08:12:05.641Z,10.00
2022-09-14T08:14:34.362Z,10.00
2022-09-14T08:17:02.392Z,10.00
2022-09-14T08:19:30.306Z,8.00
2022-09-14T08:21:58.805Z,9.00
2022-09-14T08:24:27.574Z,8.00
2022-09-14T08:26:56.058Z,6.00
2022-09-14T08:29:24.497Z,9.00
2022-09-14T08:31:53.559Z,8.00
2022-09-14T08:34:22.223Z,11.00
2022-09-14T08:36:50.943Z,9.00
2022-09-14T08:39:19.619Z,9.67
2022-09-14T08:42:00.342Z,10.00
2022-09-14T08:45:09.007Z,10.33
2022-09-14T08:47:39.995Z,11.50
2022-09-14T08:50:18.604Z,9.00
2022-09-14T08:52:53.657Z,10.00
2022-09-14T08:55:46.560Z,11.00
2022-09-14T08:58:48.547Z,10.00
2022-09-14T09:01:48.158Z,10.00
2022-09-14T09:04:24.644Z,8.50
2022-09-14T09:07:06.008Z,9.00
2022-09-14T09:09:50.947Z,9.00
2022-09-14T09:12:42.648Z,8.00
2022-09-14T09:15:29.732Z,10.00
2022-09-14T09:18:41.093Z,9.00
2022-09-14T09:21:21.511Z,9.00
2022-09-14T09:23:50.228Z,9.00
2022-09-14T09:26:32.825Z,11.00
2022-09-14T09:29:04.093Z,9.00
2022-09-14T09:31:55.143Z,9.00
2022-09-14T09:34:31.819Z,8.00
2022-09-14T09:37:01.131Z,10.00
2022-09-14T09:39:33.417Z,9.00
2022-09-14T09:42:24.803Z,10.00
2022-09-14T09:45:06.029Z,9.00
2022-09-14T09:47:42.302Z,9.00
2022-09-14T09:50:13.814Z,10.00
2022-09-14T09:52:57.575Z,9.33
2022-09-14T09:55:38.501Z,10.00
2022-09-14T09:58:39.515Z,10.00
2022-09-14T10:01:30.648Z,9.00
2022-09-14T10:04:21.474Z,8.00
2022-09-14T10:06:57.757Z,10.00
2022-09-14T10:09:28.686Z,9.67
2022-09-14T10:12:05.812Z,10.00
2022-09-14T10:14:37.988Z,9.00
2022-09-14T10:17:23.706Z,9.00
2022-09-14T10:19:55.025Z,9.67
2022-09-14T10:22:36.378Z,10.00
2022-09-14T10:25:23.841Z,9.00
2022-09-14T10:28:00.734Z,12.00
2022-09-14T10:31:05.286Z,11.00
2022-09-14T10:33:35.641Z,10.00
2022-09-14T10:36:17.476Z,10.33
2022-09-14T10:39:27.352Z,11.00
2022-09-14T10:42:27.292Z,11.00
2022-09-14T10:45:31.534Z,10.00
2022-09-14T10:48:37.784Z,11.67
2022-09-14T10:51:46.477Z,11.00
2022-09-14T10:55:07.062Z,10.67
2022-09-14T10:58:21.200Z,10.50
2022-09-14T11:01:25.476Z,9.67
2022-09-14T11:04:37.522Z,10.67
2022-09-14T11:07:24.585Z,10.00
2022-09-14T11:10:07.747Z,8.00
2022-09-14T11:13:02.190Z,10.33
2022-09-14T11:16:03.131Z,10.00
2022-09-14T11:19:09.995Z,9.00
2022-09-14T11:22:03.028Z,9.00
2022-09-14T11:24:56.758Z,9.00
2022-09-14T11:27:53.337Z,10.00
2022-09-14T11:30:29.442Z,9.33
2022-09-14T11:33:41.812Z,10.00
2022-09-14T11:36:18.767Z,9.00
2022-09-14T11:39:19.743Z,8.00
2022-09-14T11:42:00.281Z,9.33
2022-09-14T11:44:40.581Z,9.67
2022-09-14T11:47:20.990Z,9.00
2022-09-14T11:50:24.451Z,8.67
2022-09-14T11:53:12.992Z,8.20
2022-09-14T11:55:51.417Z,8.00
2022-09-14T11:58:31.329Z,9.00
2022-09-14T12:01:25.709Z,9.67
2022-09-14T12:03:56.881Z,7.67
2022-09-14T12:06:31.216Z,8.00
2022-09-14T12:09:17.652Z,8.00
2022-09-14T12:12:24.390Z,8.00
2022-09-14T12:15:01.220Z,6.33
2022-09-14T12:17:41.576Z,8.00
2022-09-14T12:20:38.283Z,8.00
2022-09-14T12:23:37.258Z,8.00
2022-09-14T12:26:12.018Z,6.33
2022-09-14T12:28:50.612Z,8.00
2022-09-14T12:31:47.555Z,9.00
2022-09-14T12:34:28.228Z,9.33
2022-09-14T12:37:05.715Z,7.00
2022-09-14T12:39:37.093Z,7.00
2022-09-14T12:42:32.596Z,7.00
2022-09-14T12:45:52.606Z,7.00
2022-09-14T12:48:46.940Z,6.33
2022-09-14T12:51:30.549Z,6.00
2022-09-14T12:54:28.624Z,6.67
2022-09-14T12:57:34.482Z,7.67
2022-09-14T13:00:22.684Z,6.00
2022-09-14T13:03:22.009Z,6.00
2022-09-14T13:05:51.961Z,6.20
2022-09-14T13:08:25.285Z,6.33
2022-09-14T13:10:53.939Z,7.67
2022-09-14T13:13:30.858Z,6.00
2022-09-14T13:16:05.148Z,5.75
2022-09-14T13:18:38.127Z,5.60
2022-09-14T13:21:24.995Z,7.20
2022-09-14T13:23:53.476Z,6.00
2022-09-14T13:26:29.489Z,6.67
2022-09-14T13:29:01.760Z,7.00
2022-09-14T13:31:38.950Z,6.00
2022-09-14T13:34:07.622Z,7.00
2022-09-14T13:36:43.590Z,6.60
2022-09-14T13:39:38.309Z,7.00
2022-09-14T13:42:08.418Z,8.00
2022-09-14T13:44:45.464Z,7.00
2022-09-14T13:47:19.738Z,7.33
2022-09-14T13:49:52.011Z,6.00
2022-09-14T13:52:56.952Z,6.00
2022-09-14T13:55:29.917Z,5.20
2022-09-14T13:58:26.543Z,6.00
2022-09-14T14:01:05.237Z,7.33
2022-09-14T14:03:49.188Z,6.00
2022-09-14T14:06:38.377Z,7.00
2022-09-14T14:09:10.624Z,7.67
2022-09-14T14:11:55.194Z,6.00
2022-09-14T14:14:31.113Z,5.00
2022-09-14T14:17:34.656Z,7.00
2022-09-14T14:20:24.727Z,8.00
2022-09-14T14:23:10.954Z,7.00
2022-09-14T14:25:49.550Z,8.33
2022-09-14T14:28:29.660Z,6.67
2022-09-14T14:31:07.795Z,8.00
2022-09-14T14:33:49.374Z,6.67
2022-09-14T14:36:19.868Z,8.50
2022-09-14T14:38:48.549Z,7.33
2022-09-14T14:41:22.194Z,8.00
2022-09-14T14:43:50.983Z,8.67
2022-09-14T14:46:19.638Z,8.00
2022-09-14T14:48:48.087Z,8.00
2022-09-14T14:51:16.578Z,7.00
2022-09-14T14:53:46.100Z,8.00
2022-09-14T14:56:15.063Z,7.00
2022-09-14T14:58:48.543Z,7.00
2022-09-14T15:01:17.256Z,8.67
2022-09-14T15:03:45.983Z,9.00
2022-09-14T15:06:24.607Z,7.33
2022-09-14T15:08:56.892Z,5.00
2022-09-14T15:11:25.339Z,8.33
2022-09-14T15:13:53.822Z,10.00
2022-09-14T15:16:22.201Z,7.00
2022-09-14T15:18:50.800Z,7.00
2022-09-14T15:21:19.372Z,8.00
2022-09-14T15:23:49.550Z,6.00
2022-09-14T15:26:18.220Z,8.00
2022-09-14T15:28:48.566Z,7.33
2022-09-14T15:31:17.005Z,6.00
2022-09-14T15:33:45.736Z,6.00
2022-09-14T15:36:14.558Z,9.33
2022-09-14T15:38:42.935Z,7.33
2022-09-14T15:41:14.354Z,10.00
2022-09-14T15:43:44.541Z,9.00
2022-09-14T15:46:13.009Z,8.00
2022-09-14T15:48:41.563Z,10.00
2022-09-14T15:51:12.064Z,9.67
2022-09-14T15:53:40.481Z,9.00
2022-09-14T15:56:15.858Z,10.00
2022-09-14T15:58:47.984Z,10.33
2022-09-14T16:01:19.413Z,8.67
2022-09-14T16:03:48.906Z,8.60
2022-09-14T16:06:18.363Z,8.40
2022-09-14T16:08:46.961Z,8.00
2022-09-14T16:11:15.463Z,8.67
2022-09-14T16:13:43.925Z,8.00
2022-09-14T16:16:16.026Z,8.67
2022-09-14T16:18:44.858Z,8.67
2022-09-14T16:21:27.270Z,8.00
2022-09-14T16:24:00.615Z,10.67
2022-09-14T16:26:36.160Z,10.33
2022-09-14T16:29:08.537Z,7.00
2022-09-14T16:31:41.948Z,8.20
2022-09-14T16:34:29.256Z,8.00
2022-09-14T16:36:58.882Z,8.33
2022-09-14T16:39:30.125Z,8.67
2022-09-14T16:42:00.083Z,10.67
2022-09-14T16:44:29.460Z,10.00
2022-09-14T16:46:59.526Z,9.33
2022-09-14T16:49:28.595Z,7.67
2022-09-14T16:52:00.785Z,10.67
2022-09-14T16:54:31.862Z,10.00
2022-09-14T16:57:01.521Z,11.00
2022-09-14T16:59:29.994Z,9.67
2022-09-14T17:01:58.389Z,7.33
2022-09-14T17:04:27.112Z,11.33
2022-09-14T17:06:56.891Z,13.50
2022-09-14T17:09:29.640Z,12.00
2022-09-14T17:11:59.207Z,12.67
2022-09-14T17:14:33.207Z,13.00
2022-09-14T17:17:02.149Z,12.00
2022-09-14T17:19:30.744Z,12.00
2022-09-14T17:21:59.263Z,11.00
2022-09-14T17:24:29.404Z,11.67
2022-09-14T17:26:57.947Z,12.50
2022-09-14T17:29:26.386Z,11.67
2022-09-14T17:31:55.600Z,11.00
2022-09-14T17:34:24.356Z,14.50
2022-09-14T17:36:52.835Z,14.00
2022-09-14T17:39:21.390Z,13.33
2022-09-14T17:41:49.930Z,15.00
2022-09-14T17:44:20.127Z,15.00
2022-09-14T17:46:52.663Z,15.00
2022-09-14T17:49:23.176Z,14.33
2022-09-14T17:51:52.481Z,13.00
2022-09-14T17:54:21.521Z,13.67
2022-09-14T17:56:50.176Z,15.00
2022-09-14T17:59:21.388Z,15.00
2022-09-14T18:01:51.081Z,16.00
2022-09-14T18:04:19.897Z,12.00
2022-09-14T18:06:50.253Z,16.00
2022-09-14T18:09:24.884Z,16.50
2022-09-14T18:11:57.435Z,15.67
2022-09-14T18:14:27.814Z,15.33
2022-09-14T18:16:58.425Z,16.00
2022-09-14T18:19:28.057Z,14.00
2022-09-14T18:21:56.593Z,16.67
2022-09-14T18:24:25.188Z,17.50
2022-09-14T18:26:54.019Z,15.00
2022-09-14T18:29:23.703Z,14.67
2022-09-14T18:31:54.105Z,14.00
2022-09-14T18:34:25.405Z,14.00
2022-09-14T18:36:54.128Z,14.00
2022-09-14T18:39:22.754Z,13.00
2022-09-14T18:41:53.953Z,17.00
2022-09-14T18:44:23.646Z,17.00
2022-09-14T18:46:52.450Z,19.00
2022-09-14T18:49:21.334Z,17.33
2022-09-14T18:51:50.136Z,20.00
2022-09-14T18:54:19.010Z,20.00
2022-09-14T18:56:48.623Z,20.33
2022-09-14T18:59:17.621Z,18.00
2022-09-14T19:01:46.843Z,16.00
2022-09-14T19:04:15.990Z,16.67
2022-09-14T19:06:44.818Z,18.00
2022-09-14T19:09:13.523Z,16.67
2022-09-14T19:11:42.320Z,16.00
2022-09-14T19:14:13.990Z,16.00
2022-09-14T19:16:43.237Z,15.00
2022-09-14T19:19:16.847Z,17.00
2022-09-14T19:21:45.692Z,15.00
2022-09-14T19:24:17.262Z,15.00
2022-09-14T19:26:51.949Z,14.00
2022-09-14T19:29:25.646Z,13.50
2022-09-14T19:31:54.942Z,15.00
2022-09-14T19:34:26.745Z,14.00
2022-09-14T19:36:56.540Z,15.00
2022-09-14T19:39:26.929Z,15.00
2022-09-14T19:41:55.569Z,16.50
2022-09-14T19:44:25.389Z,15.00
2022-09-14T19:46:56.242Z,17.00
2022-09-14T19:49:26.256Z,15.00
2022-09-14T19:51:55.270Z,16.33
2022-09-14T19:54:24.952Z,16.33
2022-09-14T19:56:54.412Z,18.33
2022-09-14T19:59:23.106Z,17.67
2022-09-14T20:01:52.068Z,17.00
2022-09-14T20:04:22.935Z,17.67
2022-09-14T20:06:51.784Z,18.33
2022-09-14T20:09:23.676Z,18.67
2022-09-14T20:11:53.968Z,17.00
2022-09-14T20:14:25.303Z,19.00
2022-09-14T20:16:58.793Z,18.00
2022-09-14T20:19:31.130Z,19.67
2022-09-14T20:21:59.762Z,17.33
2022-09-14T20:24:31.739Z,17.00
2022-09-14T20:27:02.357Z,18.00
2022-09-14T20:29:35.404Z,21.00
2022-09-14T20:32:07.191Z,17.00
2022-09-14T20:34:35.877Z,18.67
2022-09-14T20:37:05.044Z,18.00
2022-09-14T20:39:38.247Z,17.00
2022-09-14T20:42:07.065Z,17.00
2022-09-14T20:44:36.901Z,17.00
2022-09-14T20:47:06.010Z,17.00
2022-09-14T20:49:34.604Z,19.00
2022-09-14T20:52:03.751Z,18.00
2022-09-14T20:54:31.614Z,26.50
2022-09-14T20:57:04.229Z,14.50
2022-09-14T20:59:33.585Z,14.00
2022-09-14T21:04:50.860Z,14.00
2022-09-14T21:07:19.389Z,12.00
2022-09-14T21:09:47.957Z,12.00
2022-09-14T21:11:13.188Z,15.00
2022-09-14T21:12:16.746Z,12.00
2022-09-14T21:14:45.439Z,12.67
2022-09-14T21:17:13.849Z,11.00
2022-09-14T21:19:42.408Z,12.00
2022-09-14T21:22:10.995Z,10.50
2022-09-14T21:24:39.771Z,11.00
2022-09-14T21:27:08.295Z,11.00
2022-09-14T21:29:36.905Z,10.67
2022-09-14T21:32:08.826Z,11.67
2022-09-14T21:34:37.721Z,10.00
2022-09-14T21:37:06.277Z,11.00
2022-09-14T21:39:34.737Z,10.67
2022-09-14T21:42:03.326Z,10.00
2022-09-14T21:44:35.552Z,9.00
2022-09-14T21:47:05.041Z,9.00
2022-09-14T21:49:33.556Z,9.00
2022-09-14T21:52:02.360Z,9.00
2022-09-14T21:54:32.039Z,7.00
2022-09-14T21:57:00.615Z,9.00
2022-09-14T21:59:29.036Z,9.67
2022-09-14T22:01:58.143Z,9.33
2022-09-14T22:04:27.011Z,10.00
2022-09-14T22:06:57.251Z,8.33
2022-09-14T22:09:28.994Z,9.00
2022-09-14T22:11:57.611Z,10.00
2022-09-14T22:14:30.130Z,10.00
2022-09-14T22:16:58.657Z,9.00
2022-09-14T22:19:32.732Z,9.00
2022-09-14T22:22:01.513Z,9.00
2022-09-14T22:24:38.431Z,9.00
2022-09-14T22:27:11.826Z,9.00
2022-09-14T22:29:42.203Z,7.25
2022-09-14T22:32:12.314Z,9.00
2022-09-14T22:34:42.716Z,8.33
2022-09-14T22:37:13.587Z,9.00
2022-09-14T22:40:35.050Z,8.67
2022-09-14T22:43:03.432Z,10.00
2022-09-14T22:45:31.991Z,9.00
2022-09-14T22:48:00.887Z,10.00
2022-09-14T22:50:29.636Z,9.00
2022-09-14T22:52:58.377Z,9.00
2022-09-14T22:55:27.146Z,8.67
2022-09-14T22:57:55.713Z,10.00
2022-09-14T23:00:24.383Z,10.33
2022-09-14T23:02:53.169Z,10.00
2022-09-14T23:05:21.766Z,9.33
2022-09-14T23:07:50.394Z,10.00
2022-09-14T23:10:18.823Z,10.67
2022-09-14T23:12:47.243Z,9.00
2022-09-14T23:15:16.336Z,8.67
2022-09-14T23:17:48.763Z,11.00
2022-09-14T23:20:19.927Z,9.00
2022-09-14T23:22:48.333Z,9.00
2022-09-14T23:25:16.924Z,8.67
2022-09-14T23:27:45.336Z,10.00
2022-09-14T23:30:14.824Z,10.00
2022-09-14T23:32:43.509Z,9.00
2022-09-14T23:35:12.541Z,9.67
2022-09-14T23:37:41.256Z,6.00
2022-09-14T23:40:10.522Z,9.00
2022-09-14T23:42:39.376Z,9.00
2022-09-14T23:45:08.985Z,8.00
2022-09-14T23:47:37.447Z,8.33
2022-09-14T23:50:08.334Z,7.80
2022-09-14T23:52:37.730Z,8.00
2022-09-14T23:55:07.184Z,8.00
2022-09-14T23:57:36.752Z,8.00
